sensor_id;sensor_type;location;lat;lon;timestamp;temperature;humidity
14786;DHT22;7484;49.906;9.058;2023-03-07T00:00:26;3.60;99.90
14786;DHT22;7484;49.906;9.058;2023-03-07T00:02:53;3.60;99.90
14786;DHT22;7484;49.906;9.058;2023-03-07T00:05:20;3.80;99.90
14786;DHT22;7484;49.906;9.058;2023-03-07T00:07:48;3.90;99.90
14786;DHT22;7484;49.906;9.058;2023-03-07T00:10:14;3.80;99.90
14786;DHT22;7484;49.906;9.058;2023-03-07T00:12:42;3.80;99.90
14786;DHT22;7484;49.906;9.058;2023-03-07T00:15:10;3.80;99.90
14786;DHT22;7484;49.906;9.058;2023-03-07T00:17:37;3.80;99.90
14786;DHT22;7484;49.906;9.058;2023-03-07T00:20:06;3.70;99.90
14786;DHT22;7484;49.906;9.058;2023-03-07T00:22:33;3.50;99.90
14786;DHT22;7484;49.906;9.058;2023-03-07T00:25:02;3.50;99.90
14786;DHT22;7484;49.906;9.058;2023-03-07T00:27:30;3.50;99.90
14786;DHT22;7484;49.906;9.058;2023-03-07T00:29:57;3.50;99.90
14786;DHT22;7484;49.906;9.058;2023-03-07T00:32:23;3.40;99.90
14786;DHT22;7484;49.906;9.058;2023-03-07T00:34:50;3.50;99.90
14786;DHT22;7484;49.906;9.058;2023-03-07T00:37:17;3.50;99.90
14786;DHT22;7484;49.906;9.058;2023-03-07T00:39:44;3.30;99.90
14786;DHT22;7484;49.906;9.058;2023-03-07T00:42:12;3.30;99.90
14786;DHT22;7484;49.906;9.058;2023-03-07T00:44:38;3.10;99.90
14786;DHT22;7484;49.906;9.058;2023-03-07T00:47:05;3.10;99.90
14786;DHT22;7484;49.906;9.058;2023-03-07T00:49:32;3.10;99.90
14786;DHT22;7484;49.906;9.058;2023-03-07T00:51:59;3.10;99.90
14786;DHT22;7484;49.906;9.058;2023-03-07T00:54:27;3.10;99.90
14786;DHT22;7484;49.906;9.058;2023-03-07T00:56:54;3.00;99.90
14786;DHT22;7484;49.906;9.058;2023-03-07T00:59:22;2.80;99.90
14786;DHT22;7484;49.906;9.058;2023-03-07T01:01:49;2.90;99.90
14786;DHT22;7484;49.906;9.058;2023-03-07T01:04:16;2.90;99.90
14786;DHT22;7484;49.906;9.058;2023-03-07T01:06:43;2.80;99.90
14786;DHT22;7484;49.906;9.058;2023-03-07T01:09:10;2.80;99.90
14786;DHT22;7484;49.906;9.058;2023-03-07T01:11:38;2.80;99.90
14786;DHT22;7484;49.906;9.058;2023-03-07T01:14:05;2.90;99.90
14786;DHT22;7484;49.906;9.058;2023-03-07T01:16:37;2.90;99.90
14786;DHT22;7484;49.906;9.058;2023-03-07T01:19:06;2.80;99.90
14786;DHT22;7484;49.906;9.058;2023-03-07T01:21:35;2.70;99.90
14786;DHT22;7484;49.906;9.058;2023-03-07T01:24:03;2.80;99.90
14786;DHT22;7484;49.906;9.058;2023-03-07T01:26:31;2.80;99.90
14786;DHT22;7484;49.906;9.058;2023-03-07T01:29:00;2.70;99.90
14786;DHT22;7484;49.906;9.058;2023-03-07T01:31:30;2.60;99.90
14786;DHT22;7484;49.906;9.058;2023-03-07T01:34:00;2.70;99.90
14786;DHT22;7484;49.906;9.058;2023-03-07T01:36:30;2.70;99.90
14786;DHT22;7484;49.906;9.058;2023-03-07T01:39:04;2.60;99.90
14786;DHT22;7484;49.906;9.058;2023-03-07T01:41:34;2.60;99.90
14786;DHT22;7484;49.906;9.058;2023-03-07T01:44:03;2.50;99.90
14786;DHT22;7484;49.906;9.058;2023-03-07T01:46:42;2.40;99.90
14786;DHT22;7484;49.906;9.058;2023-03-07T01:49:16;2.50;99.90
14786;DHT22;7484;49.906;9.058;2023-03-07T01:51:46;2.50;99.90
14786;DHT22;7484;49.906;9.058;2023-03-07T01:54:16;2.50;99.90
14786;DHT22;7484;49.906;9.058;2023-03-07T01:56:44;2.40;99.90
14786;DHT22;7484;49.906;9.058;2023-03-07T01:59:13;2.40;99.90
14786;DHT22;7484;49.906;9.058;2023-03-07T02:01:42;2.40;99.90
14786;DHT22;7484;49.906;9.058;2023-03-07T02:04:14;2.40;99.90
14786;DHT22;7484;49.906;9.058;2023-03-07T02:06:42;2.40;99.90
14786;DHT22;7484;49.906;9.058;2023-03-07T02:09:12;2.40;99.90
14786;DHT22;7484;49.906;9.058;2023-03-07T02:11:41;2.40;99.90
14786;DHT22;7484;49.906;9.058;2023-03-07T02:14:09;2.40;99.90
14786;DHT22;7484;49.906;9.058;2023-03-07T02:16:36;2.40;99.90
14786;DHT22;7484;49.906;9.058;2023-03-07T02:19:16;2.40;99.90
14786;DHT22;7484;49.906;9.058;2023-03-07T02:21:55;2.40;99.90
14786;DHT22;7484;49.906;9.058;2023-03-07T02:24:29;2.40;99.90
14786;DHT22;7484;49.906;9.058;2023-03-07T02:26:59;2.50;99.90
14786;DHT22;7484;49.906;9.058;2023-03-07T02:29:25;2.50;99.90
14786;DHT22;7484;49.906;9.058;2023-03-07T02:31:52;2.60;99.90
14786;DHT22;7484;49.906;9.058;2023-03-07T02:34:21;2.60;99.90
14786;DHT22;7484;49.906;9.058;2023-03-07T02:36:53;2.60;99.90
14786;DHT22;7484;49.906;9.058;2023-03-07T02:39:23;2.60;99.90
14786;DHT22;7484;49.906;9.058;2023-03-07T02:41:55;2.60;99.90
14786;DHT22;7484;49.906;9.058;2023-03-07T02:44:34;2.60;99.90
14786;DHT22;7484;49.906;9.058;2023-03-07T02:47:01;2.60;99.90
14786;DHT22;7484;49.906;9.058;2023-03-07T02:49:29;2.50;99.90
14786;DHT22;7484;49.906;9.058;2023-03-07T02:51:56;2.50;99.90
14786;DHT22;7484;49.906;9.058;2023-03-07T02:54:25;2.70;99.90
14786;DHT22;7484;49.906;9.058;2023-03-07T02:56:52;2.70;99.90
14786;DHT22;7484;49.906;9.058;2023-03-07T02:59:18;2.60;99.90
14786;DHT22;7484;49.906;9.058;2023-03-07T03:01:47;2.60;99.90
14786;DHT22;7484;49.906;9.058;2023-03-07T03:04:13;2.50;99.90
14786;DHT22;7484;49.906;9.058;2023-03-07T03:06:41;2.50;99.90
14786;DHT22;7484;49.906;9.058;2023-03-07T03:09:08;2.50;99.90
14786;DHT22;7484;49.906;9.058;2023-03-07T03:11:34;2.50;99.90
14786;DHT22;7484;49.906;9.058;2023-03-07T03:14:01;2.50;99.90
14786;DHT22;7484;49.906;9.058;2023-03-07T03:16:28;2.50;99.90
14786;DHT22;7484;49.906;9.058;2023-03-07T03:18:56;2.50;99.90
14786;DHT22;7484;49.906;9.058;2023-03-07T03:21:23;2.50;99.90
14786;DHT22;7484;49.906;9.058;2023-03-07T03:23:50;2.50;99.90
14786;DHT22;7484;49.906;9.058;2023-03-07T03:26:17;2.50;99.90
14786;DHT22;7484;49.906;9.058;2023-03-07T03:28:44;2.50;99.90
14786;DHT22;7484;49.906;9.058;2023-03-07T03:31:11;2.50;99.90
14786;DHT22;7484;49.906;9.058;2023-03-07T03:33:40;2.50;99.90
14786;DHT22;7484;49.906;9.058;2023-03-07T03:36:12;2.50;99.90
14786;DHT22;7484;49.906;9.058;2023-03-07T03:38:40;2.60;99.90
14786;DHT22;7484;49.906;9.058;2023-03-07T03:41:11;2.60;99.90
14786;DHT22;7484;49.906;9.058;2023-03-07T03:43:40;2.60;99.90
14786;DHT22;7484;49.906;9.058;2023-03-07T03:46:07;2.60;99.90
14786;DHT22;7484;49.906;9.058;2023-03-07T03:48:35;2.60;99.90
14786;DHT22;7484;49.906;9.058;2023-03-07T03:51:04;2.60;99.90
14786;DHT22;7484;49.906;9.058;2023-03-07T03:53:33;2.60;99.90
14786;DHT22;7484;49.906;9.058;2023-03-07T03:56:02;2.60;99.90
14786;DHT22;7484;49.906;9.058;2023-03-07T03:58:30;2.70;99.90
14786;DHT22;7484;49.906;9.058;2023-03-07T04:00:59;2.70;99.90
14786;DHT22;7484;49.906;9.058;2023-03-07T04:03:26;2.70;99.90
14786;DHT22;7484;49.906;9.058;2023-03-07T04:05:53;2.70;99.90
14786;DHT22;7484;49.906;9.058;2023-03-07T04:08:20;2.70;99.90
14786;DHT22;7484;49.906;9.058;2023-03-07T04:10:48;2.70;99.90
14786;DHT22;7484;49.906;9.058;2023-03-07T04:13:15;2.80;99.90
14786;DHT22;7484;49.906;9.058;2023-03-07T04:15:42;2.80;99.90
14786;DHT22;7484;49.906;9.058;2023-03-07T04:18:09;2.70;99.90
14786;DHT22;7484;49.906;9.058;2023-03-07T04:20:35;2.70;99.90
14786;DHT22;7484;49.906;9.058;2023-03-07T04:23:02;2.80;99.90
14786;DHT22;7484;49.906;9.058;2023-03-07T04:25:29;2.80;99.90
14786;DHT22;7484;49.906;9.058;2023-03-07T04:27:57;2.80;99.90
14786;DHT22;7484;49.906;9.058;2023-03-07T04:30:24;2.80;99.90
14786;DHT22;7484;49.906;9.058;2023-03-07T04:32:51;2.80;99.90
14786;DHT22;7484;49.906;9.058;2023-03-07T04:35:18;2.90;99.90
14786;DHT22;7484;49.906;9.058;2023-03-07T04:37:45;2.90;99.90
14786;DHT22;7484;49.906;9.058;2023-03-07T04:40:12;2.80;99.90
14786;DHT22;7484;49.906;9.058;2023-03-07T04:42:39;2.90;99.90
14786;DHT22;7484;49.906;9.058;2023-03-07T04:45:08;2.90;99.90
14786;DHT22;7484;49.906;9.058;2023-03-07T04:47:35;2.90;99.90
14786;DHT22;7484;49.906;9.058;2023-03-07T04:50:02;2.90;99.90
14786;DHT22;7484;49.906;9.058;2023-03-07T04:52:31;2.90;99.90
14786;DHT22;7484;49.906;9.058;2023-03-07T04:54:57;2.90;99.90
14786;DHT22;7484;49.906;9.058;2023-03-07T04:57:24;3.00;99.90
14786;DHT22;7484;49.906;9.058;2023-03-07T04:59:51;3.00;99.90
14786;DHT22;7484;49.906;9.058;2023-03-07T05:02:21;3.00;99.90
14786;DHT22;7484;49.906;9.058;2023-03-07T05:04:48;3.00;99.90
14786;DHT22;7484;49.906;9.058;2023-03-07T05:07:15;3.00;99.90
14786;DHT22;7484;49.906;9.058;2023-03-07T05:09:42;3.00;99.90
14786;DHT22;7484;49.906;9.058;2023-03-07T05:12:09;3.00;99.90
14786;DHT22;7484;49.906;9.058;2023-03-07T05:14:36;3.00;99.90
14786;DHT22;7484;49.906;9.058;2023-03-07T05:17:03;3.00;99.90
14786;DHT22;7484;49.906;9.058;2023-03-07T05:19:31;3.00;99.90
14786;DHT22;7484;49.906;9.058;2023-03-07T05:21:58;3.00;99.90
14786;DHT22;7484;49.906;9.058;2023-03-07T05:24:25;3.00;99.90
14786;DHT22;7484;49.906;9.058;2023-03-07T05:26:52;3.00;99.90
14786;DHT22;7484;49.906;9.058;2023-03-07T05:29:19;3.00;99.90
14786;DHT22;7484;49.906;9.058;2023-03-07T05:31:46;3.00;99.90
14786;DHT22;7484;49.906;9.058;2023-03-07T05:34:13;3.00;99.90
14786;DHT22;7484;49.906;9.058;2023-03-07T05:36:42;2.90;99.90
14786;DHT22;7484;49.906;9.058;2023-03-07T05:39:09;3.00;99.90
14786;DHT22;7484;49.906;9.058;2023-03-07T05:41:36;3.00;99.90
14786;DHT22;7484;49.906;9.058;2023-03-07T05:44:04;3.10;99.90
14786;DHT22;7484;49.906;9.058;2023-03-07T05:46:31;3.20;99.90
14786;DHT22;7484;49.906;9.058;2023-03-07T05:48:58;3.10;99.90
14786;DHT22;7484;49.906;9.058;2023-03-07T05:51:25;3.10;99.90
14786;DHT22;7484;49.906;9.058;2023-03-07T05:53:53;3.10;99.90
14786;DHT22;7484;49.906;9.058;2023-03-07T05:56:21;3.10;99.90
14786;DHT22;7484;49.906;9.058;2023-03-07T05:58:48;3.10;99.90
14786;DHT22;7484;49.906;9.058;2023-03-07T06:01:15;3.10;99.90
14786;DHT22;7484;49.906;9.058;2023-03-07T06:03:42;3.10;99.90
14786;DHT22;7484;49.906;9.058;2023-03-07T06:06:09;3.10;99.90
14786;DHT22;7484;49.906;9.058;2023-03-07T06:08:37;3.10;99.90
14786;DHT22;7484;49.906;9.058;2023-03-07T06:11:06;3.10;99.90
14786;DHT22;7484;49.906;9.058;2023-03-07T06:13:36;3.20;99.90
14786;DHT22;7484;49.906;9.058;2023-03-07T06:16:03;3.10;99.90
14786;DHT22;7484;49.906;9.058;2023-03-07T06:18:30;3.10;99.90
14786;DHT22;7484;49.906;9.058;2023-03-07T06:20:57;3.10;99.90
14786;DHT22;7484;49.906;9.058;2023-03-07T06:23:28;3.10;99.90
14786;DHT22;7484;49.906;9.058;2023-03-07T06:25:56;3.10;99.90
14786;DHT22;7484;49.906;9.058;2023-03-07T06:28:24;3.20;99.90
14786;DHT22;7484;49.906;9.058;2023-03-07T06:30:51;3.20;99.90
14786;DHT22;7484;49.906;9.058;2023-03-07T06:33:18;3.20;99.90
14786;DHT22;7484;49.906;9.058;2023-03-07T06:35:45;3.20;99.90
14786;DHT22;7484;49.906;9.058;2023-03-07T06:38:14;3.20;99.90
14786;DHT22;7484;49.906;9.058;2023-03-07T06:40:42;3.30;99.90
14786;DHT22;7484;49.906;9.058;2023-03-07T06:43:10;3.30;99.90
14786;DHT22;7484;49.906;9.058;2023-03-07T06:45:38;3.20;99.90
14786;DHT22;7484;49.906;9.058;2023-03-07T06:48:06;3.20;99.90
14786;DHT22;7484;49.906;9.058;2023-03-07T06:50:33;3.30;99.90
14786;DHT22;7484;49.906;9.058;2023-03-07T06:52:59;3.40;99.90
14786;DHT22;7484;49.906;9.058;2023-03-07T06:55:26;3.40;99.90
14786;DHT22;7484;49.906;9.058;2023-03-07T06:57:53;3.50;99.90
14786;DHT22;7484;49.906;9.058;2023-03-07T07:00:20;3.50;99.90
14786;DHT22;7484;49.906;9.058;2023-03-07T07:02:49;3.50;99.90
14786;DHT22;7484;49.906;9.058;2023-03-07T07:05:16;3.60;99.90
14786;DHT22;7484;49.906;9.058;2023-03-07T07:07:44;3.60;99.90
14786;DHT22;7484;49.906;9.058;2023-03-07T07:10:11;3.60;99.90
14786;DHT22;7484;49.906;9.058;2023-03-07T07:12:38;3.60;99.90
14786;DHT22;7484;49.906;9.058;2023-03-07T07:15:06;3.60;99.90
14786;DHT22;7484;49.906;9.058;2023-03-07T07:17:34;3.70;99.90
14786;DHT22;7484;49.906;9.058;2023-03-07T07:20:07;3.70;99.90
14786;DHT22;7484;49.906;9.058;2023-03-07T07:22:38;3.80;99.90
14786;DHT22;7484;49.906;9.058;2023-03-07T07:25:05;3.80;99.90
14786;DHT22;7484;49.906;9.058;2023-03-07T07:27:32;3.90;99.90
14786;DHT22;7484;49.906;9.058;2023-03-07T07:30:01;3.90;99.90
14786;DHT22;7484;49.906;9.058;2023-03-07T07:32:28;3.80;99.90
14786;DHT22;7484;49.906;9.058;2023-03-07T07:34:54;3.90;99.90
14786;DHT22;7484;49.906;9.058;2023-03-07T07:37:23;3.90;99.90
14786;DHT22;7484;49.906;9.058;2023-03-07T07:39:50;3.90;99.90
14786;DHT22;7484;49.906;9.058;2023-03-07T07:42:17;3.90;99.90
14786;DHT22;7484;49.906;9.058;2023-03-07T07:44:56;4.00;99.90
14786;DHT22;7484;49.906;9.058;2023-03-07T07:47:24;4.00;99.90
14786;DHT22;7484;49.906;9.058;2023-03-07T07:49:51;4.10;99.90
14786;DHT22;7484;49.906;9.058;2023-03-07T07:52:17;4.10;99.90
14786;DHT22;7484;49.906;9.058;2023-03-07T07:54:45;4.10;99.90
14786;DHT22;7484;49.906;9.058;2023-03-07T07:57:12;4.20;99.90
14786;DHT22;7484;49.906;9.058;2023-03-07T07:59:39;4.30;99.90
14786;DHT22;7484;49.906;9.058;2023-03-07T08:02:10;4.30;99.90
14786;DHT22;7484;49.906;9.058;2023-03-07T08:04:37;4.30;99.90
14786;DHT22;7484;49.906;9.058;2023-03-07T08:07:04;4.40;99.90
14786;DHT22;7484;49.906;9.058;2023-03-07T08:09:31;4.40;99.90
14786;DHT22;7484;49.906;9.058;2023-03-07T08:12:00;4.40;99.90
14786;DHT22;7484;49.906;9.058;2023-03-07T08:14:27;4.60;99.90
14786;DHT22;7484;49.906;9.058;2023-03-07T08:16:54;4.70;99.90
14786;DHT22;7484;49.906;9.058;2023-03-07T08:19:21;4.70;99.90
14786;DHT22;7484;49.906;9.058;2023-03-07T08:21:48;4.90;99.90
14786;DHT22;7484;49.906;9.058;2023-03-07T08:24:14;5.00;99.90
14786;DHT22;7484;49.906;9.058;2023-03-07T08:26:41;5.00;99.90
14786;DHT22;7484;49.906;9.058;2023-03-07T08:29:09;5.00;99.90
14786;DHT22;7484;49.906;9.058;2023-03-07T08:31:36;4.90;99.90
14786;DHT22;7484;49.906;9.058;2023-03-07T08:34:03;5.00;99.90
14786;DHT22;7484;49.906;9.058;2023-03-07T08:36:30;5.00;99.90
14786;DHT22;7484;49.906;9.058;2023-03-07T08:38:56;5.00;99.90
14786;DHT22;7484;49.906;9.058;2023-03-07T08:41:26;5.20;99.90
14786;DHT22;7484;49.906;9.058;2023-03-07T08:43:53;5.20;99.90
14786;DHT22;7484;49.906;9.058;2023-03-07T08:46:21;5.20;99.90
14786;DHT22;7484;49.906;9.058;2023-03-07T08:48:48;5.20;99.90
14786;DHT22;7484;49.906;9.058;2023-03-07T08:51:18;5.30;99.90
14786;DHT22;7484;49.906;9.058;2023-03-07T08:53:45;5.40;99.90
14786;DHT22;7484;49.906;9.058;2023-03-07T08:56:14;5.60;99.90
14786;DHT22;7484;49.906;9.058;2023-03-07T08:58:41;5.50;99.90
14786;DHT22;7484;49.906;9.058;2023-03-07T09:01:08;5.50;99.90
14786;DHT22;7484;49.906;9.058;2023-03-07T09:03:36;5.60;99.90
14786;DHT22;7484;49.906;9.058;2023-03-07T09:06:04;5.60;99.90
14786;DHT22;7484;49.906;9.058;2023-03-07T09:08:31;5.60;99.90
14786;DHT22;7484;49.906;9.058;2023-03-07T09:10:58;5.70;99.90
14786;DHT22;7484;49.906;9.058;2023-03-07T09:13:27;5.80;99.90
14786;DHT22;7484;49.906;9.058;2023-03-07T09:15:54;5.90;99.90
14786;DHT22;7484;49.906;9.058;2023-03-07T09:18:21;5.90;99.90
14786;DHT22;7484;49.906;9.058;2023-03-07T09:20:49;6.00;99.90
14786;DHT22;7484;49.906;9.058;2023-03-07T09:23:16;6.20;99.90
14786;DHT22;7484;49.906;9.058;2023-03-07T09:25:42;6.30;99.90
14786;DHT22;7484;49.906;9.058;2023-03-07T09:28:09;6.30;99.90
14786;DHT22;7484;49.906;9.058;2023-03-07T09:30:36;6.30;99.90
14786;DHT22;7484;49.906;9.058;2023-03-07T09:33:03;6.20;99.90
14786;DHT22;7484;49.906;9.058;2023-03-07T09:35:29;6.30;99.90
14786;DHT22;7484;49.906;9.058;2023-03-07T09:37:57;6.40;99.90
14786;DHT22;7484;49.906;9.058;2023-03-07T09:40:26;6.50;99.90
14786;DHT22;7484;49.906;9.058;2023-03-07T09:43:00;6.60;99.90
14786;DHT22;7484;49.906;9.058;2023-03-07T09:45:41;6.40;99.90
14786;DHT22;7484;49.906;9.058;2023-03-07T09:48:27;6.50;99.90
14786;DHT22;7484;49.906;9.058;2023-03-07T09:51:07;6.60;99.90
14786;DHT22;7484;49.906;9.058;2023-03-07T09:53:42;6.40;99.90
14786;DHT22;7484;49.906;9.058;2023-03-07T09:56:12;6.40;99.90
14786;DHT22;7484;49.906;9.058;2023-03-07T09:58:43;6.40;99.90
14786;DHT22;7484;49.906;9.058;2023-03-07T10:01:12;6.50;99.90
14786;DHT22;7484;49.906;9.058;2023-03-07T10:03:44;6.50;99.90
14786;DHT22;7484;49.906;9.058;2023-03-07T10:06:13;6.40;99.90
14786;DHT22;7484;49.906;9.058;2023-03-07T10:08:43;6.70;99.90
14786;DHT22;7484;49.906;9.058;2023-03-07T10:11:21;6.70;99.90
14786;DHT22;7484;49.906;9.058;2023-03-07T10:14:03;6.90;99.90
14786;DHT22;7484;49.906;9.058;2023-03-07T10:16:38;6.90;99.90
14786;DHT22;7484;49.906;9.058;2023-03-07T10:19:11;6.70;99.90
14786;DHT22;7484;49.906;9.058;2023-03-07T10:21:43;6.80;99.90
14786;DHT22;7484;49.906;9.058;2023-03-07T10:24:28;7.00;99.90
14786;DHT22;7484;49.906;9.058;2023-03-07T10:27:01;7.20;99.90
14786;DHT22;7484;49.906;9.058;2023-03-07T10:29:33;7.40;99.90
14786;DHT22;7484;49.906;9.058;2023-03-07T10:32:11;7.50;99.90
14786;DHT22;7484;49.906;9.058;2023-03-07T10:34:41;7.50;99.90
14786;DHT22;7484;49.906;9.058;2023-03-07T10:37:12;7.80;99.90
14786;DHT22;7484;49.906;9.058;2023-03-07T10:39:45;8.10;99.90
14786;DHT22;7484;49.906;9.058;2023-03-07T10:42:16;7.80;99.90
14786;DHT22;7484;49.906;9.058;2023-03-07T10:44:45;8.00;99.90
14786;DHT22;7484;49.906;9.058;2023-03-07T10:47:19;8.00;99.90
14786;DHT22;7484;49.906;9.058;2023-03-07T10:49:47;8.10;99.90
14786;DHT22;7484;49.906;9.058;2023-03-07T10:52:25;8.30;99.90
14786;DHT22;7484;49.906;9.058;2023-03-07T10:54:54;8.00;99.90
14786;DHT22;7484;49.906;9.058;2023-03-07T10:57:41;7.90;99.90
14786;DHT22;7484;49.906;9.058;2023-03-07T11:00:13;8.10;99.90
14786;DHT22;7484;49.906;9.058;2023-03-07T11:02:42;8.30;99.90
14786;DHT22;7484;49.906;9.058;2023-03-07T11:05:24;8.10;99.90
14786;DHT22;7484;49.906;9.058;2023-03-07T11:07:53;7.90;99.90
14786;DHT22;7484;49.906;9.058;2023-03-07T11:10:30;8.10;99.90
14786;DHT22;7484;49.906;9.058;2023-03-07T11:12:57;8.20;99.90
14786;DHT22;7484;49.906;9.058;2023-03-07T11:15:24;8.00;99.90
14786;DHT22;7484;49.906;9.058;2023-03-07T11:17:52;7.80;99.90
14786;DHT22;7484;49.906;9.058;2023-03-07T11:20:20;7.80;99.90
14786;DHT22;7484;49.906;9.058;2023-03-07T11:22:50;7.90;99.90
14786;DHT22;7484;49.906;9.058;2023-03-07T11:25:19;8.00;99.90
14786;DHT22;7484;49.906;9.058;2023-03-07T11:27:50;8.10;99.90
14786;DHT22;7484;49.906;9.058;2023-03-07T11:30:23;7.90;99.90
14786;DHT22;7484;49.906;9.058;2023-03-07T11:32:52;7.90;99.90
14786;DHT22;7484;49.906;9.058;2023-03-07T11:35:29;8.10;99.90
14786;DHT22;7484;49.906;9.058;2023-03-07T11:38:05;8.10;99.90
14786;DHT22;7484;49.906;9.058;2023-03-07T11:40:38;8.10;99.90
14786;DHT22;7484;49.906;9.058;2023-03-07T11:43:17;7.90;99.90
14786;DHT22;7484;49.906;9.058;2023-03-07T11:45:50;7.90;99.90
14786;DHT22;7484;49.906;9.058;2023-03-07T11:48:28;7.70;99.90
14786;DHT22;7484;49.906;9.058;2023-03-07T11:50:58;8.20;99.90
14786;DHT22;7484;49.906;9.058;2023-03-07T11:53:41;8.40;99.90
14786;DHT22;7484;49.906;9.058;2023-03-07T11:56:21;8.60;99.90
14786;DHT22;7484;49.906;9.058;2023-03-07T12:01:46;9.10;99.90
14786;DHT22;7484;49.906;9.058;2023-03-07T12:04:35;9.40;99.90
14786;DHT22;7484;49.906;9.058;2023-03-07T12:07:10;9.30;99.90
14786;DHT22;7484;49.906;9.058;2023-03-07T12:09:47;9.20;99.90
14786;DHT22;7484;49.906;9.058;2023-03-07T12:12:47;9.30;99.90
14786;DHT22;7484;49.906;9.058;2023-03-07T12:15:27;9.40;99.90
14786;DHT22;7484;49.906;9.058;2023-03-07T12:18:10;9.60;99.90
14786;DHT22;7484;49.906;9.058;2023-03-07T12:20:46;9.50;99.90
14786;DHT22;7484;49.906;9.058;2023-03-07T12:23:18;9.60;99.90
14786;DHT22;7484;49.906;9.058;2023-03-07T12:25:50;9.60;99.90
14786;DHT22;7484;49.906;9.058;2023-03-07T12:28:23;9.70;99.90
14786;DHT22;7484;49.906;9.058;2023-03-07T12:31:00;10.10;99.90
14786;DHT22;7484;49.906;9.058;2023-03-07T12:33:46;10.50;99.00
14786;DHT22;7484;49.906;9.058;2023-03-07T12:36:21;10.20;99.10
14786;DHT22;7484;49.906;9.058;2023-03-07T12:38:52;10.50;98.50
14786;DHT22;7484;49.906;9.058;2023-03-07T12:41:29;10.60;98.00
14786;DHT22;7484;49.906;9.058;2023-03-07T12:44:03;10.80;97.30
14786;DHT22;7484;49.906;9.058;2023-03-07T12:46:37;10.60;96.80
14786;DHT22;7484;49.906;9.058;2023-03-07T12:49:12;10.00;97.50
14786;DHT22;7484;49.906;9.058;2023-03-07T12:51:45;9.50;98.70
14786;DHT22;7484;49.906;9.058;2023-03-07T12:54:16;8.90;99.70
14786;DHT22;7484;49.906;9.058;2023-03-07T12:56:48;8.90;99.90
14786;DHT22;7484;49.906;9.058;2023-03-07T12:59:18;8.90;99.90
14786;DHT22;7484;49.906;9.058;2023-03-07T13:01:49;8.70;99.90
14786;DHT22;7484;49.906;9.058;2023-03-07T13:04:21;8.60;99.90
14786;DHT22;7484;49.906;9.058;2023-03-07T13:06:53;8.40;99.90
14786;DHT22;7484;49.906;9.058;2023-03-07T13:09:23;8.50;99.90
14786;DHT22;7484;49.906;9.058;2023-03-07T13:12:21;8.40;99.90
14786;DHT22;7484;49.906;9.058;2023-03-07T13:14:50;8.30;99.90
14786;DHT22;7484;49.906;9.058;2023-03-07T13:20:46;8.10;99.90
14786;DHT22;7484;49.906;9.058;2023-03-07T13:23:31;8.40;99.90
14786;DHT22;7484;49.906;9.058;2023-03-07T13:26:12;8.40;99.90
14786;DHT22;7484;49.906;9.058;2023-03-07T13:28:41;8.50;99.90
14786;DHT22;7484;49.906;9.058;2023-03-07T13:33:53;8.40;99.90
14786;DHT22;7484;49.906;9.058;2023-03-07T13:36:33;8.50;99.90
14786;DHT22;7484;49.906;9.058;2023-03-07T13:39:01;8.30;99.90
14786;DHT22;7484;49.906;9.058;2023-03-07T13:41:43;8.10;99.90
14786;DHT22;7484;49.906;9.058;2023-03-07T13:44:27;8.00;99.90
14786;DHT22;7484;49.906;9.058;2023-03-07T13:46:55;8.10;99.90
14786;DHT22;7484;49.906;9.058;2023-03-07T13:49:40;8.00;99.90
14786;DHT22;7484;49.906;9.058;2023-03-07T13:52:36;7.70;99.90
14786;DHT22;7484;49.906;9.058;2023-03-07T13:55:23;7.70;99.90
14786;DHT22;7484;49.906;9.058;2023-03-07T13:57:52;7.70;99.90
14786;DHT22;7484;49.906;9.058;2023-03-07T14:00:32;7.70;99.90
14786;DHT22;7484;49.906;9.058;2023-03-07T14:02:59;7.60;99.90
14786;DHT22;7484;49.906;9.058;2023-03-07T14:05:26;7.50;99.90
14786;DHT22;7484;49.906;9.058;2023-03-07T14:07:56;7.50;99.90
14786;DHT22;7484;49.906;9.058;2023-03-07T14:10:26;7.50;99.90
14786;DHT22;7484;49.906;9.058;2023-03-07T14:13:18;7.50;99.90
14786;DHT22;7484;49.906;9.058;2023-03-07T14:15:59;7.40;99.90
14786;DHT22;7484;49.906;9.058;2023-03-07T14:18:37;7.40;99.90
14786;DHT22;7484;49.906;9.058;2023-03-07T14:21:11;7.60;99.90
14786;DHT22;7484;49.906;9.058;2023-03-07T14:23:53;7.70;99.90
14786;DHT22;7484;49.906;9.058;2023-03-07T14:26:24;7.50;99.90
14786;DHT22;7484;49.906;9.058;2023-03-07T14:28:57;7.40;99.90
14786;DHT22;7484;49.906;9.058;2023-03-07T14:31:26;7.50;99.90
14786;DHT22;7484;49.906;9.058;2023-03-07T14:33:54;7.60;99.90
14786;DHT22;7484;49.906;9.058;2023-03-07T14:36:23;7.70;99.90
14786;DHT22;7484;49.906;9.058;2023-03-07T14:38:54;7.60;99.90
14786;DHT22;7484;49.906;9.058;2023-03-07T14:41:36;7.60;99.90
14786;DHT22;7484;49.906;9.058;2023-03-07T14:44:18;7.50;99.90
14786;DHT22;7484;49.906;9.058;2023-03-07T14:46:59;7.30;99.90
14786;DHT22;7484;49.906;9.058;2023-03-07T14:49:32;7.40;99.90
14786;DHT22;7484;49.906;9.058;2023-03-07T14:52:02;7.40;99.90
14786;DHT22;7484;49.906;9.058;2023-03-07T14:54:32;7.40;99.90
14786;DHT22;7484;49.906;9.058;2023-03-07T14:56:59;7.40;99.90
14786;DHT22;7484;49.906;9.058;2023-03-07T14:59:27;7.30;99.90
14786;DHT22;7484;49.906;9.058;2023-03-07T15:01:55;7.40;99.90
14786;DHT22;7484;49.906;9.058;2023-03-07T15:04:24;7.30;99.90
14786;DHT22;7484;49.906;9.058;2023-03-07T15:06:54;7.30;99.90
14786;DHT22;7484;49.906;9.058;2023-03-07T15:09:21;7.30;99.90
14786;DHT22;7484;49.906;9.058;2023-03-07T15:11:53;7.50;99.90
14786;DHT22;7484;49.906;9.058;2023-03-07T15:14:32;7.40;99.90
14786;DHT22;7484;49.906;9.058;2023-03-07T15:17:03;7.50;99.90
14786;DHT22;7484;49.906;9.058;2023-03-07T15:19:34;7.50;99.90
14786;DHT22;7484;49.906;9.058;2023-03-07T15:22:06;7.50;99.90
14786;DHT22;7484;49.906;9.058;2023-03-07T15:24:36;7.50;99.90
14786;DHT22;7484;49.906;9.058;2023-03-07T15:27:05;7.40;99.90
14786;DHT22;7484;49.906;9.058;2023-03-07T15:29:35;7.30;99.90
14786;DHT22;7484;49.906;9.058;2023-03-07T15:32:05;7.40;99.90
14786;DHT22;7484;49.906;9.058;2023-03-07T15:34:34;7.20;99.90
14786;DHT22;7484;49.906;9.058;2023-03-07T15:37:20;7.10;99.90
14786;DHT22;7484;49.906;9.058;2023-03-07T15:39:54;7.20;99.90
14786;DHT22;7484;49.906;9.058;2023-03-07T15:42:23;7.20;99.90
14786;DHT22;7484;49.906;9.058;2023-03-07T15:44:54;7.00;99.90
14786;DHT22;7484;49.906;9.058;2023-03-07T15:47:21;7.00;99.90
14786;DHT22;7484;49.906;9.058;2023-03-07T15:49:50;7.00;99.90
14786;DHT22;7484;49.906;9.058;2023-03-07T15:52:21;7.00;99.90
14786;DHT22;7484;49.906;9.058;2023-03-07T15:54:51;7.10;99.90
14786;DHT22;7484;49.906;9.058;2023-03-07T15:57:21;7.00;99.90
14786;DHT22;7484;49.906;9.058;2023-03-07T15:59:54;7.10;99.90
14786;DHT22;7484;49.906;9.058;2023-03-07T16:02:38;7.00;99.90
14786;DHT22;7484;49.906;9.058;2023-03-07T16:07:50;7.00;99.90
14786;DHT22;7484;49.906;9.058;2023-03-07T16:10:17;6.80;99.90
14786;DHT22;7484;49.906;9.058;2023-03-07T16:12:45;6.70;99.90
14786;DHT22;7484;49.906;9.058;2023-03-07T16:15:14;6.70;99.90
14786;DHT22;7484;49.906;9.058;2023-03-07T16:17:41;6.60;99.90
14786;DHT22;7484;49.906;9.058;2023-03-07T16:20:12;6.70;99.90
14786;DHT22;7484;49.906;9.058;2023-03-07T16:22:39;6.90;99.90
14786;DHT22;7484;49.906;9.058;2023-03-07T16:25:07;6.90;99.90
14786;DHT22;7484;49.906;9.058;2023-03-07T16:27:35;6.80;99.90
14786;DHT22;7484;49.906;9.058;2023-03-07T16:30:08;6.70;99.90
14786;DHT22;7484;49.906;9.058;2023-03-07T16:32:39;6.70;99.90